sensor_id;sensor_type;location;lat;lon;timestamp;P1;durP1;ratioP1;P2;durP2;ratioP2
18793;SDS011;29610;49.022;12.114;2022-12-29T00:00:15;12.83;;;6.30;;
18793;SDS011;29610;49.022;12.114;2022-12-29T00:02:44;17.53;;;6.73;;
18793;SDS011;29610;49.022;12.114;2022-12-29T00:05:14;11.90;;;6.00;;
18793;SDS011;29610;49.022;12.114;2022-12-29T00:07:43;10.40;;;5.70;;
18793;SDS011;29610;49.022;12.114;2022-12-29T00:10:11;12.10;;;5.57;;
18793;SDS011;29610;49.022;12.114;2022-12-29T00:12:40;13.17;;;5.40;;
18793;SDS011;29610;49.022;12.114;2022-12-29T00:15:26;14.43;;;6.70;;
18793;SDS011;29610;49.022;12.114;2022-12-29T00:18:07;13.80;;;6.57;;
18793;SDS011;29610;49.022;12.114;2022-12-29T00:20:37;13.30;;;6.43;;
18793;SDS011;29610;49.022;12.114;2022-12-29T00:23:32;16.27;;;6.10;;
18793;SDS011;29610;49.022;12.114;2022-12-29T00:26:18;13.07;;;5.67;;
18793;SDS011;29610;49.022;12.114;2022-12-29T00:29:06;11.10;;;6.03;;
18793;SDS011;29610;49.022;12.114;2022-12-29T00:31:56;14.43;;;5.30;;
18793;SDS011;29610;49.022;12.114;2022-12-29T00:34:43;15.80;;;5.67;;
18793;SDS011;29610;49.022;12.114;2022-12-29T00:37:31;11.17;;;6.00;;
18793;SDS011;29610;49.022;12.114;2022-12-29T00:40:14;12.83;;;5.50;;
18793;SDS011;29610;49.022;12.114;2022-12-29T00:43:00;13.77;;;5.90;;
18793;SDS011;29610;49.022;12.114;2022-12-29T00:45:46;13.17;;;6.37;;
18793;SDS011;29610;49.022;12.114;2022-12-29T00:48:14;12.87;;;6.17;;
18793;SDS011;29610;49.022;12.114;2022-12-29T00:51:04;12.40;;;5.60;;
18793;SDS011;29610;49.022;12.114;2022-12-29T00:53:34;12.33;;;6.10;;
18793;SDS011;29610;49.022;12.114;2022-12-29T00:56:03;11.70;;;5.30;;
18793;SDS011;29610;49.022;12.114;2022-12-29T00:58:32;11.57;;;5.97;;
18793;SDS011;29610;49.022;12.114;2022-12-29T01:01:01;11.90;;;5.60;;
18793;SDS011;29610;49.022;12.114;2022-12-29T01:03:31;13.10;;;5.33;;
18793;SDS011;29610;49.022;12.114;2022-12-29T01:06:01;10.83;;;5.33;;
18793;SDS011;29610;49.022;12.114;2022-12-29T01:08:31;12.53;;;5.67;;
18793;SDS011;29610;49.022;12.114;2022-12-29T01:11:03;13.20;;;5.87;;
18793;SDS011;29610;49.022;12.114;2022-12-29T01:13:33;11.60;;;5.07;;
18793;SDS011;29610;49.022;12.114;2022-12-29T01:16:05;12.90;;;5.33;;
18793;SDS011;29610;49.022;12.114;2022-12-29T01:18:34;12.60;;;5.43;;
18793;SDS011;29610;49.022;12.114;2022-12-29T01:21:03;15.23;;;6.03;;
18793;SDS011;29610;49.022;12.114;2022-12-29T01:23:35;13.10;;;5.43;;
18793;SDS011;29610;49.022;12.114;2022-12-29T01:26:08;14.33;;;5.47;;
18793;SDS011;29610;49.022;12.114;2022-12-29T01:28:39;12.10;;;6.10;;
18793;SDS011;29610;49.022;12.114;2022-12-29T01:31:08;17.40;;;5.30;;
18793;SDS011;29610;49.022;12.114;2022-12-29T01:33:39;15.03;;;5.90;;
18793;SDS011;29610;49.022;12.114;2022-12-29T01:36:09;12.30;;;5.30;;
18793;SDS011;29610;49.022;12.114;2022-12-29T01:38:42;13.33;;;5.60;;
18793;SDS011;29610;49.022;12.114;2022-12-29T01:41:12;12.80;;;5.43;;
18793;SDS011;29610;49.022;12.114;2022-12-29T01:43:46;13.13;;;5.53;;
18793;SDS011;29610;49.022;12.114;2022-12-29T01:46:20;11.40;;;6.23;;
18793;SDS011;29610;49.022;12.114;2022-12-29T01:48:55;12.27;;;5.97;;
18793;SDS011;29610;49.022;12.114;2022-12-29T01:51:33;13.83;;;6.00;;
18793;SDS011;29610;49.022;12.114;2022-12-29T01:54:09;11.60;;;5.50;;
18793;SDS011;29610;49.022;12.114;2022-12-29T01:56:43;11.30;;;5.13;;
18793;SDS011;29610;49.022;12.114;2022-12-29T01:59:15;14.07;;;5.63;;
18793;SDS011;29610;49.022;12.114;2022-12-29T02:01:49;12.90;;;5.60;;
18793;SDS011;29610;49.022;12.114;2022-12-29T02:04:18;12.77;;;5.83;;
18793;SDS011;29610;49.022;12.114;2022-12-29T02:06:48;11.37;;;5.03;;
18793;SDS011;29610;49.022;12.114;2022-12-29T02:09:24;13.50;;;6.20;;
18793;SDS011;29610;49.022;12.114;2022-12-29T02:11:53;10.40;;;5.07;;
18793;SDS011;29610;49.022;12.114;2022-12-29T02:14:22;10.80;;;5.40;;
18793;SDS011;29610;49.022;12.114;2022-12-29T02:16:55;11.33;;;5.00;;
18793;SDS011;29610;49.022;12.114;2022-12-29T02:19:52;11.77;;;5.70;;
18793;SDS011;29610;49.022;12.114;2022-12-29T02:23:05;14.43;;;5.40;;
18793;SDS011;29610;49.022;12.114;2022-12-29T02:26:20;14.03;;;5.83;;
18793;SDS011;29610;49.022;12.114;2022-12-29T02:29:11;9.57;;;4.90;;
18793;SDS011;29610;49.022;12.114;2022-12-29T02:32:09;10.37;;;5.40;;
18793;SDS011;29610;49.022;12.114;2022-12-29T02:34:49;12.90;;;5.17;;
18793;SDS011;29610;49.022;12.114;2022-12-29T02:37:34;14.83;;;6.00;;
18793;SDS011;29610;49.022;12.114;2022-12-29T02:40:14;10.80;;;5.30;;
18793;SDS011;29610;49.022;12.114;2022-12-29T02:42:55;15.33;;;6.40;;
18793;SDS011;29610;49.022;12.114;2022-12-29T02:45:36;18.20;;;5.77;;
18793;SDS011;29610;49.022;12.114;2022-12-29T02:48:16;12.07;;;5.10;;
18793;SDS011;29610;49.022;12.114;2022-12-29T02:50:57;11.73;;;5.90;;
18793;SDS011;29610;49.022;12.114;2022-12-29T02:53:30;12.40;;;6.20;;
18793;SDS011;29610;49.022;12.114;2022-12-29T02:56:21;10.60;;;5.10;;
18793;SDS011;29610;49.022;12.114;2022-12-29T02:58:51;11.10;;;5.13;;
18793;SDS011;29610;49.022;12.114;2022-12-29T03:01:22;11.03;;;5.17;;
18793;SDS011;29610;49.022;12.114;2022-12-29T03:04:30;11.67;;;4.60;;
18793;SDS011;29610;49.022;12.114;2022-12-29T03:07:09;14.50;;;6.07;;
18793;SDS011;29610;49.022;12.114;2022-12-29T03:09:52;10.17;;;5.40;;
18793;SDS011;29610;49.022;12.114;2022-12-29T03:12:34;10.77;;;5.10;;
18793;SDS011;29610;49.022;12.114;2022-12-29T03:15:34;12.00;;;5.40;;
18793;SDS011;29610;49.022;12.114;2022-12-29T03:18:36;14.90;;;4.50;;
18793;SDS011;29610;49.022;12.114;2022-12-29T03:21:16;10.20;;;4.67;;
18793;SDS011;29610;49.022;12.114;2022-12-29T03:24:16;11.10;;;5.50;;
18793;SDS011;29610;49.022;12.114;2022-12-29T03:26:50;17.20;;;5.00;;
18793;SDS011;29610;49.022;12.114;2022-12-29T03:29:26;10.57;;;4.60;;
18793;SDS011;29610;49.022;12.114;2022-12-29T03:32:00;9.90;;;4.63;;
18793;SDS011;29610;49.022;12.114;2022-12-29T03:34:33;10.30;;;4.43;;
18793;SDS011;29610;49.022;12.114;2022-12-29T03:37:08;9.97;;;4.53;;
18793;SDS011;29610;49.022;12.114;2022-12-29T03:39:44;12.13;;;4.40;;
18793;SDS011;29610;49.022;12.114;2022-12-29T03:42:14;13.03;;;5.00;;
18793;SDS011;29610;49.022;12.114;2022-12-29T03:44:48;13.20;;;4.47;;
18793;SDS011;29610;49.022;12.114;2022-12-29T03:47:23;10.87;;;4.37;;
18793;SDS011;29610;49.022;12.114;2022-12-29T03:49:54;10.77;;;4.87;;
18793;SDS011;29610;49.022;12.114;2022-12-29T03:52:24;10.23;;;4.93;;
18793;SDS011;29610;49.022;12.114;2022-12-29T03:54:53;11.20;;;5.23;;
18793;SDS011;29610;49.022;12.114;2022-12-29T03:57:22;9.77;;;5.13;;
18793;SDS011;29610;49.022;12.114;2022-12-29T04:00:05;15.97;;;4.60;;
18793;SDS011;29610;49.022;12.114;2022-12-29T04:02:44;9.17;;;4.83;;
18793;SDS011;29610;49.022;12.114;2022-12-29T04:05:18;9.50;;;4.87;;
18793;SDS011;29610;49.022;12.114;2022-12-29T04:07:50;12.77;;;5.00;;
18793;SDS011;29610;49.022;12.114;2022-12-29T04:10:18;10.30;;;4.80;;
18793;SDS011;29610;49.022;12.114;2022-12-29T04:12:50;9.90;;;4.67;;
18793;SDS011;29610;49.022;12.114;2022-12-29T04:15:19;20.93;;;6.00;;
18793;SDS011;29610;49.022;12.114;2022-12-29T04:17:48;10.60;;;4.40;;
18793;SDS011;29610;49.022;12.114;2022-12-29T04:20:16;12.23;;;5.50;;
18793;SDS011;29610;49.022;12.114;2022-12-29T04:23:07;9.30;;;4.37;;
18793;SDS011;29610;49.022;12.114;2022-12-29T04:25:37;12.93;;;4.43;;
18793;SDS011;29610;49.022;12.114;2022-12-29T04:28:07;8.30;;;4.00;;
18793;SDS011;29610;49.022;12.114;2022-12-29T04:30:48;13.63;;;5.10;;
18793;SDS011;29610;49.022;12.114;2022-12-29T04:33:20;10.43;;;4.60;;
18793;SDS011;29610;49.022;12.114;2022-12-29T04:35:49;10.27;;;4.37;;
18793;SDS011;29610;49.022;12.114;2022-12-29T04:38:21;10.23;;;4.27;;
18793;SDS011;29610;49.022;12.114;2022-12-29T04:40:51;10.23;;;3.90;;
18793;SDS011;29610;49.022;12.114;2022-12-29T04:43:22;11.93;;;4.33;;
18793;SDS011;29610;49.022;12.114;2022-12-29T04:46:14;9.50;;;3.90;;
18793;SDS011;29610;49.022;12.114;2022-12-29T04:49:12;11.33;;;4.60;;
18793;SDS011;29610;49.022;12.114;2022-12-29T04:52:07;11.53;;;4.23;;
18793;SDS011;29610;49.022;12.114;2022-12-29T04:54:38;9.20;;;4.00;;
18793;SDS011;29610;49.022;12.114;2022-12-29T04:57:13;10.77;;;4.17;;
18793;SDS011;29610;49.022;12.114;2022-12-29T04:59:44;11.23;;;4.80;;
18793;SDS011;29610;49.022;12.114;2022-12-29T05:02:13;10.33;;;4.10;;
18793;SDS011;29610;49.022;12.114;2022-12-29T05:04:45;8.80;;;4.40;;
18793;SDS011;29610;49.022;12.114;2022-12-29T05:07:15;9.00;;;4.20;;
18793;SDS011;29610;49.022;12.114;2022-12-29T05:12:15;10.23;;;3.80;;
18793;SDS011;29610;49.022;12.114;2022-12-29T05:14:56;9.00;;;3.50;;
18793;SDS011;29610;49.022;12.114;2022-12-29T05:17:25;10.63;;;3.93;;
18793;SDS011;29610;49.022;12.114;2022-12-29T05:19:54;11.17;;;4.10;;
18793;SDS011;29610;49.022;12.114;2022-12-29T05:22:23;14.43;;;4.97;;
18793;SDS011;29610;49.022;12.114;2022-12-29T05:24:55;18.37;;;4.67;;
18793;SDS011;29610;49.022;12.114;2022-12-29T05:27:24;9.93;;;4.20;;
18793;SDS011;29610;49.022;12.114;2022-12-29T05:30:09;11.50;;;3.60;;
18793;SDS011;29610;49.022;12.114;2022-12-29T05:32:39;8.00;;;3.93;;
18793;SDS011;29610;49.022;12.114;2022-12-29T05:35:08;8.67;;;3.30;;
18793;SDS011;29610;49.022;12.114;2022-12-29T05:37:37;11.93;;;4.80;;
18793;SDS011;29610;49.022;12.114;2022-12-29T05:40:08;8.50;;;3.90;;
18793;SDS011;29610;49.022;12.114;2022-12-29T05:42:39;8.60;;;4.10;;
18793;SDS011;29610;49.022;12.114;2022-12-29T05:45:28;10.90;;;3.63;;
18793;SDS011;29610;49.022;12.114;2022-12-29T05:48:22;9.57;;;4.40;;
18793;SDS011;29610;49.022;12.114;2022-12-29T05:51:17;11.50;;;4.10;;
18793;SDS011;29610;49.022;12.114;2022-12-29T05:53:48;9.70;;;4.00;;
18793;SDS011;29610;49.022;12.114;2022-12-29T05:56:18;15.50;;;4.63;;
18793;SDS011;29610;49.022;12.114;2022-12-29T05:58:53;9.70;;;4.20;;
18793;SDS011;29610;49.022;12.114;2022-12-29T06:01:23;8.80;;;4.10;;
18793;SDS011;29610;49.022;12.114;2022-12-29T06:03:53;9.57;;;4.17;;
18793;SDS011;29610;49.022;12.114;2022-12-29T06:06:22;9.27;;;4.10;;
18793;SDS011;29610;49.022;12.114;2022-12-29T06:08:51;9.03;;;4.20;;
18793;SDS011;29610;49.022;12.114;2022-12-29T06:11:22;13.50;;;4.67;;
18793;SDS011;29610;49.022;12.114;2022-12-29T06:13:54;8.93;;;3.30;;
18793;SDS011;29610;49.022;12.114;2022-12-29T06:16:23;10.63;;;4.57;;
18793;SDS011;29610;49.022;12.114;2022-12-29T06:18:56;9.80;;;4.07;;
18793;SDS011;29610;49.022;12.114;2022-12-29T06:21:25;10.97;;;4.63;;
18793;SDS011;29610;49.022;12.114;2022-12-29T06:23:54;10.03;;;3.93;;
18793;SDS011;29610;49.022;12.114;2022-12-29T06:26:24;10.87;;;4.10;;
18793;SDS011;29610;49.022;12.114;2022-12-29T06:28:52;12.00;;;4.10;;
18793;SDS011;29610;49.022;12.114;2022-12-29T06:31:21;11.37;;;4.33;;
18793;SDS011;29610;49.022;12.114;2022-12-29T06:33:50;15.43;;;4.10;;
18793;SDS011;29610;49.022;12.114;2022-12-29T06:36:19;10.17;;;3.83;;
18793;SDS011;29610;49.022;12.114;2022-12-29T06:38:48;12.93;;;4.10;;
18793;SDS011;29610;49.022;12.114;2022-12-29T06:41:18;13.50;;;4.20;;
18793;SDS011;29610;49.022;12.114;2022-12-29T06:44:29;11.03;;;4.10;;
18793;SDS011;29610;49.022;12.114;2022-12-29T06:47:04;13.13;;;3.67;;
18793;SDS011;29610;49.022;12.114;2022-12-29T06:49:34;9.23;;;3.70;;
18793;SDS011;29610;49.022;12.114;2022-12-29T06:52:03;11.17;;;4.10;;
18793;SDS011;29610;49.022;12.114;2022-12-29T06:54:38;10.57;;;3.93;;
18793;SDS011;29610;49.022;12.114;2022-12-29T06:57:07;13.53;;;3.60;;
18793;SDS011;29610;49.022;12.114;2022-12-29T06:59:37;14.90;;;4.30;;
18793;SDS011;29610;49.022;12.114;2022-12-29T07:02:05;8.50;;;3.77;;
18793;SDS011;29610;49.022;12.114;2022-12-29T07:04:35;11.17;;;4.13;;
18793;SDS011;29610;49.022;12.114;2022-12-29T07:07:03;8.80;;;3.50;;
18793;SDS011;29610;49.022;12.114;2022-12-29T07:09:32;8.97;;;3.87;;
18793;SDS011;29610;49.022;12.114;2022-12-29T07:12:01;8.40;;;3.57;;
18793;SDS011;29610;49.022;12.114;2022-12-29T07:14:30;8.60;;;3.93;;
18793;SDS011;29610;49.022;12.114;2022-12-29T07:17:09;9.13;;;3.90;;
18793;SDS011;29610;49.022;12.114;2022-12-29T07:19:38;15.73;;;3.90;;
18793;SDS011;29610;49.022;12.114;2022-12-29T07:22:06;10.57;;;3.77;;
18793;SDS011;29610;49.022;12.114;2022-12-29T07:24:38;8.87;;;3.30;;
18793;SDS011;29610;49.022;12.114;2022-12-29T07:27:08;9.67;;;3.93;;
18793;SDS011;29610;49.022;12.114;2022-12-29T07:29:37;10.27;;;2.70;;
18793;SDS011;29610;49.022;12.114;2022-12-29T07:32:05;10.10;;;4.47;;
18793;SDS011;29610;49.022;12.114;2022-12-29T07:34:35;8.63;;;3.50;;
18793;SDS011;29610;49.022;12.114;2022-12-29T07:37:06;9.93;;;4.07;;
18793;SDS011;29610;49.022;12.114;2022-12-29T07:39:34;8.40;;;3.67;;
18793;SDS011;29610;49.022;12.114;2022-12-29T07:42:03;8.83;;;3.67;;
18793;SDS011;29610;49.022;12.114;2022-12-29T07:44:43;14.13;;;4.67;;
18793;SDS011;29610;49.022;12.114;2022-12-29T07:47:15;14.20;;;4.90;;
18793;SDS011;29610;49.022;12.114;2022-12-29T07:49:45;8.80;;;3.80;;
18793;SDS011;29610;49.022;12.114;2022-12-29T07:52:14;23.53;;;5.17;;
18793;SDS011;29610;49.022;12.114;2022-12-29T07:54:43;21.30;;;5.80;;
18793;SDS011;29610;49.022;12.114;2022-12-29T07:57:11;12.70;;;4.17;;
18793;SDS011;29610;49.022;12.114;2022-12-29T07:59:40;11.07;;;4.90;;
18793;SDS011;29610;49.022;12.114;2022-12-29T08:02:10;12.23;;;4.10;;
18793;SDS011;29610;49.022;12.114;2022-12-29T08:04:39;13.63;;;3.97;;
18793;SDS011;29610;49.022;12.114;2022-12-29T08:07:09;9.60;;;4.30;;
18793;SDS011;29610;49.022;12.114;2022-12-29T08:09:38;12.60;;;5.73;;
18793;SDS011;29610;49.022;12.114;2022-12-29T08:12:08;11.33;;;4.77;;
18793;SDS011;29610;49.022;12.114;2022-12-29T08:14:38;9.60;;;4.30;;
18793;SDS011;29610;49.022;12.114;2022-12-29T08:17:06;9.07;;;4.10;;
18793;SDS011;29610;49.022;12.114;2022-12-29T08:19:35;9.67;;;4.60;;
18793;SDS011;29610;49.022;12.114;2022-12-29T08:22:04;9.00;;;3.90;;
18793;SDS011;29610;49.022;12.114;2022-12-29T08:24:34;8.93;;;3.77;;
18793;SDS011;29610;49.022;12.114;2022-12-29T08:27:03;8.40;;;4.13;;
18793;SDS011;29610;49.022;12.114;2022-12-29T08:29:45;14.13;;;4.80;;
18793;SDS011;29610;49.022;12.114;2022-12-29T08:32:14;13.83;;;4.13;;
18793;SDS011;29610;49.022;12.114;2022-12-29T08:34:43;13.10;;;4.37;;
18793;SDS011;29610;49.022;12.114;2022-12-29T08:37:13;11.93;;;3.93;;
18793;SDS011;29610;49.022;12.114;2022-12-29T08:39:43;9.17;;;3.77;;
18793;SDS011;29610;49.022;12.114;2022-12-29T08:42:12;9.83;;;3.80;;
18793;SDS011;29610;49.022;12.114;2022-12-29T08:44:41;12.03;;;4.03;;
18793;SDS011;29610;49.022;12.114;2022-12-29T08:47:11;9.67;;;3.93;;
18793;SDS011;29610;49.022;12.114;2022-12-29T08:49:40;9.00;;;3.70;;
18793;SDS011;29610;49.022;12.114;2022-12-29T08:52:08;11.10;;;4.33;;
18793;SDS011;29610;49.022;12.114;2022-12-29T08:54:37;10.20;;;4.87;;
18793;SDS011;29610;49.022;12.114;2022-12-29T08:57:07;11.37;;;3.70;;
18793;SDS011;29610;49.022;12.114;2022-12-29T08:59:44;17.30;;;4.20;;
18793;SDS011;29610;49.022;12.114;2022-12-29T09:02:14;10.33;;;3.80;;
18793;SDS011;29610;49.022;12.114;2022-12-29T09:04:51;9.23;;;3.83;;
18793;SDS011;29610;49.022;12.114;2022-12-29T09:07:20;13.90;;;5.70;;
18793;SDS011;29610;49.022;12.114;2022-12-29T09:09:49;13.53;;;4.83;;
18793;SDS011;29610;49.022;12.114;2022-12-29T09:12:20;11.53;;;4.30;;
18793;SDS011;29610;49.022;12.114;2022-12-29T09:14:49;11.73;;;4.67;;
18793;SDS011;29610;49.022;12.114;2022-12-29T09:17:18;17.50;;;6.23;;
18793;SDS011;29610;49.022;12.114;2022-12-29T09:20:04;9.53;;;4.30;;
18793;SDS011;29610;49.022;12.114;2022-12-29T09:22:35;10.97;;;4.10;;
18793;SDS011;29610;49.022;12.114;2022-12-29T09:25:04;12.03;;;3.63;;
18793;SDS011;29610;49.022;12.114;2022-12-29T09:27:36;11.60;;;3.97;;
18793;SDS011;29610;49.022;12.114;2022-12-29T09:30:06;8.97;;;3.77;;
18793;SDS011;29610;49.022;12.114;2022-12-29T09:32:38;8.90;;;3.33;;
18793;SDS011;29610;49.022;12.114;2022-12-29T09:35:11;8.90;;;3.70;;
18793;SDS011;29610;49.022;12.114;2022-12-29T09:37:40;9.20;;;3.97;;
18793;SDS011;29610;49.022;12.114;2022-12-29T09:40:14;7.90;;;2.90;;
18793;SDS011;29610;49.022;12.114;2022-12-29T09:43:02;8.50;;;3.60;;
18793;SDS011;29610;49.022;12.114;2022-12-29T09:46:02;19.03;;;3.97;;
18793;SDS011;29610;49.022;12.114;2022-12-29T09:48:47;10.80;;;3.23;;
18793;SDS011;29610;49.022;12.114;2022-12-29T09:51:23;10.23;;;4.20;;
18793;SDS011;29610;49.022;12.114;2022-12-29T09:53:55;8.90;;;3.97;;
18793;SDS011;29610;49.022;12.114;2022-12-29T09:56:29;8.07;;;3.27;;
18793;SDS011;29610;49.022;12.114;2022-12-29T09:59:02;9.97;;;4.33;;
18793;SDS011;29610;49.022;12.114;2022-12-29T10:01:41;10.07;;;3.60;;
18793;SDS011;29610;49.022;12.114;2022-12-29T10:04:17;13.53;;;4.47;;
18793;SDS011;29610;49.022;12.114;2022-12-29T10:06:50;9.70;;;3.93;;
18793;SDS011;29610;49.022;12.114;2022-12-29T10:09:47;11.93;;;4.20;;
18793;SDS011;29610;49.022;12.114;2022-12-29T10:12:30;10.63;;;3.57;;
18793;SDS011;29610;49.022;12.114;2022-12-29T10:15:23;9.10;;;3.40;;
18793;SDS011;29610;49.022;12.114;2022-12-29T10:18:18;14.10;;;4.80;;
18793;SDS011;29610;49.022;12.114;2022-12-29T10:21:06;9.27;;;4.00;;
18793;SDS011;29610;49.022;12.114;2022-12-29T10:23:50;9.57;;;3.83;;
18793;SDS011;29610;49.022;12.114;2022-12-29T10:26:21;12.37;;;4.13;;
18793;SDS011;29610;49.022;12.114;2022-12-29T10:28:57;9.30;;;3.80;;
18793;SDS011;29610;49.022;12.114;2022-12-29T10:31:34;13.23;;;3.97;;
18793;SDS011;29610;49.022;12.114;2022-12-29T10:34:12;9.37;;;3.30;;
18793;SDS011;29610;49.022;12.114;2022-12-29T10:36:49;14.17;;;4.13;;
18793;SDS011;29610;49.022;12.114;2022-12-29T10:39:28;13.70;;;3.97;;
18793;SDS011;29610;49.022;12.114;2022-12-29T10:42:08;20.70;;;4.10;;
18793;SDS011;29610;49.022;12.114;2022-12-29T10:44:41;12.00;;;3.53;;
18793;SDS011;29610;49.022;12.114;2022-12-29T10:47:13;10.40;;;3.80;;
18793;SDS011;29610;49.022;12.114;2022-12-29T10:49:48;9.83;;;3.93;;
18793;SDS011;29610;49.022;12.114;2022-12-29T10:52:18;10.30;;;3.70;;
18793;SDS011;29610;49.022;12.114;2022-12-29T10:54:51;8.60;;;3.53;;
18793;SDS011;29610;49.022;12.114;2022-12-29T10:57:27;8.70;;;3.10;;
18793;SDS011;29610;49.022;12.114;2022-12-29T11:00:04;10.43;;;3.67;;
18793;SDS011;29610;49.022;12.114;2022-12-29T11:02:46;10.73;;;3.83;;
18793;SDS011;29610;49.022;12.114;2022-12-29T11:05:40;13.00;;;3.60;;
18793;SDS011;29610;49.022;12.114;2022-12-29T11:08:17;10.17;;;3.33;;
18793;SDS011;29610;49.022;12.114;2022-12-29T11:10:57;10.30;;;3.80;;
18793;SDS011;29610;49.022;12.114;2022-12-29T11:13:29;8.20;;;3.20;;
18793;SDS011;29610;49.022;12.114;2022-12-29T11:16:05;11.50;;;4.70;;
18793;SDS011;29610;49.022;12.114;2022-12-29T11:18:36;11.20;;;4.53;;
18793;SDS011;29610;49.022;12.114;2022-12-29T11:21:23;8.90;;;3.63;;
18793;SDS011;29610;49.022;12.114;2022-12-29T11:24:00;10.70;;;3.90;;
18793;SDS011;29610;49.022;12.114;2022-12-29T11:26:31;10.10;;;3.30;;
18793;SDS011;29610;49.022;12.114;2022-12-29T11:29:16;8.70;;;3.30;;
18793;SDS011;29610;49.022;12.114;2022-12-29T11:31:51;10.30;;;3.93;;
18793;SDS011;29610;49.022;12.114;2022-12-29T11:34:24;10.73;;;3.27;;
18793;SDS011;29610;49.022;12.114;2022-12-29T11:37:00;10.30;;;4.00;;
18793;SDS011;29610;49.022;12.114;2022-12-29T11:39:36;9.63;;;3.53;;
18793;SDS011;29610;49.022;12.114;2022-12-29T11:42:13;10.40;;;3.40;;
18793;SDS011;29610;49.022;12.114;2022-12-29T11:44:46;7.93;;;2.77;;
18793;SDS011;29610;49.022;12.114;2022-12-29T11:47:22;9.53;;;3.10;;
18793;SDS011;29610;49.022;12.114;2022-12-29T11:50:01;11.40;;;3.80;;
18793;SDS011;29610;49.022;12.114;2022-12-29T11:52:35;9.10;;;3.33;;
18793;SDS011;29610;49.022;12.114;2022-12-29T11:55:16;9.93;;;3.47;;
18793;SDS011;29610;49.022;12.114;2022-12-29T11:57:48;9.37;;;3.27;;
18793;SDS011;29610;49.022;12.114;2022-12-29T12:00:25;8.83;;;2.80;;
18793;SDS011;29610;49.022;12.114;2022-12-29T12:03:03;11.57;;;3.60;;
18793;SDS011;29610;49.022;12.114;2022-12-29T12:05:41;9.67;;;2.90;;
18793;SDS011;29610;49.022;12.114;2022-12-29T12:08:21;9.70;;;3.03;;
18793;SDS011;29610;49.022;12.114;2022-12-29T12:11:03;15.73;;;3.53;;
18793;SDS011;29610;49.022;12.114;2022-12-29T12:13:41;8.37;;;2.90;;
18793;SDS011;29610;49.022;12.114;2022-12-29T12:16:41;11.77;;;2.80;;
18793;SDS011;29610;49.022;12.114;2022-12-29T12:19:20;9.90;;;3.33;;
18793;SDS011;29610;49.022;12.114;2022-12-29T12:22:10;10.07;;;3.33;;
18793;SDS011;29610;49.022;12.114;2022-12-29T12:24:51;13.07;;;3.50;;
18793;SDS011;29610;49.022;12.114;2022-12-29T12:27:29;11.43;;;4.00;;
18793;SDS011;29610;49.022;12.114;2022-12-29T12:30:09;11.20;;;3.70;;
18793;SDS011;29610;49.022;12.114;2022-12-29T12:32:46;11.60;;;3.50;;
18793;SDS011;29610;49.022;12.114;2022-12-29T12:35:25;10.57;;;3.40;;
18793;SDS011;29610;49.022;12.114;2022-12-29T12:38:11;14.33;;;4.07;;
18793;SDS011;29610;49.022;12.114;2022-12-29T12:41:05;12.37;;;3.63;;
18793;SDS011;29610;49.022;12.114;2022-12-29T12:43:49;11.67;;;3.93;;
18793;SDS011;29610;49.022;12.114;2022-12-29T12:46:29;9.03;;;3.03;;
18793;SDS011;29610;49.022;12.114;2022-12-29T12:53:03;10.63;;;2.97;;
18793;SDS011;29610;49.022;12.114;2022-12-29T12:56:11;10.27;;;3.83;;
18793;SDS011;29610;49.022;12.114;2022-12-29T12:58:55;16.17;;;5.40;;
18793;SDS011;29610;49.022;12.114;2022-12-29T13:01:38;17.00;;;7.60;;
18793;SDS011;29610;49.022;12.114;2022-12-29T13:04:25;16.47;;;6.03;;
18793;SDS011;29610;49.022;12.114;2022-12-29T13:07:13;9.90;;;3.67;;
18793;SDS011;29610;49.022;12.114;2022-12-29T13:09:59;10.07;;;3.00;;
18793;SDS011;29610;49.022;12.114;2022-12-29T13:12:49;16.07;;;4.93;;
18793;SDS011;29610;49.022;12.114;2022-12-29T13:15:42;16.13;;;5.23;;
18793;SDS011;29610;49.022;12.114;2022-12-29T13:18:20;11.80;;;3.60;;
18793;SDS011;29610;49.022;12.114;2022-12-29T13:21:00;14.83;;;3.47;;
18793;SDS011;29610;49.022;12.114;2022-12-29T13:23:42;11.20;;;3.60;;
18793;SDS011;29610;49.022;12.114;2022-12-29T13:26:24;8.60;;;2.80;;
18793;SDS011;29610;49.022;12.114;2022-12-29T13:29:03;10.23;;;3.10;;
18793;SDS011;29610;49.022;12.114;2022-12-29T13:31:45;10.13;;;2.60;;
18793;SDS011;29610;49.022;12.114;2022-12-29T13:34:27;9.80;;;2.97;;
18793;SDS011;29610;49.022;12.114;2022-12-29T13:37:12;9.67;;;3.80;;
18793;SDS011;29610;49.022;12.114;2022-12-29T13:39:47;12.90;;;4.37;;
18793;SDS011;29610;49.022;12.114;2022-12-29T13:42:22;12.93;;;4.60;;
18793;SDS011;29610;49.022;12.114;2022-12-29T13:44:57;10.30;;;3.87;;
18793;SDS011;29610;49.022;12.114;2022-12-29T13:47:31;12.60;;;4.57;;
18793;SDS011;29610;49.022;12.114;2022-12-29T13:50:08;10.10;;;3.90;;
18793;SDS011;29610;49.022;12.114;2022-12-29T13:52:44;12.67;;;3.67;;
18793;SDS011;29610;49.022;12.114;2022-12-29T13:55:24;15.87;;;4.90;;
18793;SDS011;29610;49.022;12.114;2022-12-29T13:58:00;14.47;;;3.43;;
18793;SDS011;29610;49.022;12.114;2022-12-29T14:00:42;10.90;;;3.20;;
18793;SDS011;29610;49.022;12.114;2022-12-29T14:03:37;9.77;;;2.90;;
18793;SDS011;29610;49.022;12.114;2022-12-29T14:06:23;12.50;;;3.13;;
18793;SDS011;29610;49.022;12.114;2022-12-29T14:08:55;9.43;;;2.90;;
18793;SDS011;29610;49.022;12.114;2022-12-29T14:11:31;18.63;;;3.63;;
18793;SDS011;29610;49.022;12.114;2022-12-29T14:14:10;17.63;;;3.33;;
18793;SDS011;29610;49.022;12.114;2022-12-29T14:16:46;9.83;;;2.70;;
18793;SDS011;29610;49.022;12.114;2022-12-29T14:19:18;10.57;;;2.90;;
18793;SDS011;29610;49.022;12.114;2022-12-29T14:21:54;10.47;;;3.70;;
18793;SDS011;29610;49.022;12.114;2022-12-29T14:24:32;11.33;;;2.80;;
18793;SDS011;29610;49.022;12.114;2022-12-29T14:33:28;9.27;;;3.03;;
18793;SDS011;29610;49.022;12.114;2022-12-29T14:38:48;10.90;;;3.93;;
18793;SDS011;29610;49.022;12.114;2022-12-29T14:41:22;10.23;;;3.60;;
18793;SDS011;29610;49.022;12.114;2022-12-29T14:43:57;9.00;;;3.17;;
18793;SDS011;29610;49.022;12.114;2022-12-29T14:46:42;11.50;;;3.97;;
18793;SDS011;29610;49.022;12.114;2022-12-29T14:49:24;14.43;;;4.97;;
18793;SDS011;29610;49.022;12.114;2022-12-29T14:52:04;11.17;;;3.97;;
18793;SDS011;29610;49.022;12.114;2022-12-29T14:54:43;12.20;;;3.00;;
18793;SDS011;29610;49.022;12.114;2022-12-29T14:57:25;9.13;;;2.93;;
18793;SDS011;29610;49.022;12.114;2022-12-29T15:00:08;9.60;;;2.90;;
18793;SDS011;29610;49.022;12.114;2022-12-29T15:02:48;8.77;;;2.77;;
18793;SDS011;29610;49.022;12.114;2022-12-29T15:05:34;10.40;;;3.03;;
18793;SDS011;29610;49.022;12.114;2022-12-29T15:08:09;11.23;;;2.80;;
18793;SDS011;29610;49.022;12.114;2022-12-29T15:10:42;20.10;;;4.00;;
18793;SDS011;29610;49.022;12.114;2022-12-29T15:13:21;12.97;;;4.50;;
18793;SDS011;29610;49.022;12.114;2022-12-29T15:15:53;11.50;;;3.37;;
18793;SDS011;29610;49.022;12.114;2022-12-29T15:18:23;15.73;;;3.20;;
18793;SDS011;29610;49.022;12.114;2022-12-29T15:20:57;9.90;;;3.20;;
18793;SDS011;29610;49.022;12.114;2022-12-29T15:23:29;11.70;;;3.20;;
18793;SDS011;29610;49.022;12.114;2022-12-29T15:26:04;12.67;;;4.20;;
18793;SDS011;29610;49.022;12.114;2022-12-29T15:28:39;13.77;;;3.70;;
18793;SDS011;29610;49.022;12.114;2022-12-29T15:31:10;12.90;;;4.77;;
18793;SDS011;29610;49.022;12.114;2022-12-29T15:33:43;12.87;;;4.10;;